UAL2056 CYVR-CYXS
Flight info
| Callsign | UAL2056 |
|---|---|
| Flight time | 1h 6m |
| Altitude | 19000 |
| Route | CYVR/08R YVR4 GARRE SEATN YWL UKSEK CYXS/RZ24 |
| Aircraft | DH8D/M-VGDW/C |
Departure
| Time | 2026-05-06 20:49 |
|---|---|
| Airport | Vancouver International Airport (CYVR) |
Arrival
| Time | 2026-05-06 21:55 |
|---|---|
| Airport | Prince George (International) Airport (CYXS) |
| Time | Latitude | Longitude | Altitude | Speed | Heading |
|---|---|---|---|---|---|
| 2026-05-06 20:20 | 49.19128 | -123.17947 | 20 ft | 0 kts | 34° |
| 2026-05-06 20:40 | 49.19117 | -123.17961 | 20 ft | 2 kts | 46° |
| 2026-05-06 20:40 | 49.19107 | -123.17979 | 20 ft | 2 kts | 58° |
| 2026-05-06 20:40 | 49.19101 | -123.17999 | 20 ft | 2 kts | 70° |
| 2026-05-06 20:41 | 49.19097 | -123.18021 | 20 ft | 2 kts | 83° |
| 2026-05-06 20:41 | 49.19097 | -123.18044 | 20 ft | 2 kts | 95° |
| 2026-05-06 20:41 | 49.19099 | -123.18067 | 20 ft | 2 kts | 100° |
| 2026-05-06 20:41 | 49.19101 | -123.18085 | 20 ft | 0 kts | 99° |
| 2026-05-06 20:43 | 49.19101 | -123.18082 | 20 ft | 2 kts | 101° |
| 2026-05-06 20:44 | 49.19083 | -123.18072 | 20 ft | 4 kts | 227° |
| 2026-05-06 20:44 | 49.19102 | -123.18147 | 20 ft | 11 kts | 298° |
| 2026-05-06 20:44 | 49.19122 | -123.18263 | 20 ft | 11 kts | 279° |
| 2026-05-06 20:44 | 49.19110 | -123.18384 | 20 ft | 11 kts | 247° |
| 2026-05-06 20:45 | 49.19123 | -123.18491 | 20 ft | 11 kts | 323° |
| 2026-05-06 20:45 | 49.19146 | -123.18583 | 20 ft | 10 kts | 240° |
| 2026-05-06 20:45 | 49.19163 | -123.18699 | 19 ft | 16 kts | 321° |
| 2026-05-06 20:45 | 49.19259 | -123.18813 | 17 ft | 17 kts | 322° |
| 2026-05-06 20:46 | 49.19352 | -123.18926 | 17 ft | 16 kts | 309° |
| 2026-05-06 20:46 | 49.19350 | -123.19082 | 17 ft | 14 kts | 258° |
| 2026-05-06 20:46 | 49.19331 | -123.19241 | 17 ft | 15 kts | 261° |
| 2026-05-06 20:46 | 49.19311 | -123.19405 | 17 ft | 16 kts | 259° |
| 2026-05-06 20:47 | 49.19290 | -123.19579 | 17 ft | 16 kts | 259° |
| 2026-05-06 20:47 | 49.19259 | -123.19740 | 19 ft | 14 kts | 232° |
| 2026-05-06 20:47 | 49.19181 | -123.19827 | 20 ft | 13 kts | 214° |
| 2026-05-06 20:47 | 49.19098 | -123.19846 | 20 ft | 11 kts | 170° |
| 2026-05-06 20:48 | 49.19023 | -123.19797 | 19 ft | 12 kts | 132° |
| 2026-05-06 20:48 | 49.18955 | -123.19675 | 17 ft | 21 kts | 130° |
| 2026-05-06 20:48 | 49.18857 | -123.19371 | 17 ft | 50 kts | 102° |
| 2026-05-06 20:48 | 49.18744 | -123.18441 | 20 ft | 122 kts | 99° |
| 2026-05-06 20:49 | 49.18581 | -123.17030 | 319 ft | 140 kts | 100° |
| 2026-05-06 20:49 | 49.18409 | -123.15567 | 930 ft | 142 kts | 101° |
| 2026-05-06 20:49 | 49.18255 | -123.14101 | 1544 ft | 144 kts | 100° |
| 2026-05-06 20:49 | 49.18305 | -123.12565 | 2046 ft | 157 kts | 68° |
| 2026-05-06 20:50 | 49.19119 | -123.11272 | 2245 ft | 183 kts | 34° |
| 2026-05-06 20:50 | 49.20241 | -123.10242 | 2607 ft | 197 kts | 30° |
| 2026-05-06 20:50 | 49.21503 | -123.09122 | 2780 ft | 218 kts | 30° |
| 2026-05-06 20:50 | 49.22812 | -123.07960 | 3271 ft | 221 kts | 30° |
| 2026-05-06 20:51 | 49.24136 | -123.06783 | 3785 ft | 224 kts | 29° |
| 2026-05-06 20:51 | 49.25493 | -123.05576 | 4317 ft | 225 kts | 29° |
| 2026-05-06 20:51 | 49.26844 | -123.04373 | 4814 ft | 228 kts | 29° |
| 2026-05-06 20:51 | 49.28223 | -123.03142 | 5318 ft | 231 kts | 28° |
| 2026-05-06 20:52 | 49.29601 | -123.01914 | 5816 ft | 234 kts | 28° |
| 2026-05-06 20:52 | 49.31012 | -123.00652 | 6434 ft | 237 kts | 28° |
| 2026-05-06 20:52 | 49.32431 | -122.99383 | 7060 ft | 239 kts | 28° |
| 2026-05-06 20:52 | 49.33859 | -122.98104 | 7678 ft | 242 kts | 28° |
| 2026-05-06 20:53 | 49.35327 | -122.96788 | 8230 ft | 246 kts | 27° |
| 2026-05-06 20:53 | 49.36798 | -122.95470 | 8889 ft | 249 kts | 27° |
| 2026-05-06 20:53 | 49.38285 | -122.94136 | 9541 ft | 252 kts | 27° |
| 2026-05-06 20:53 | 49.39809 | -122.92766 | 10214 ft | 254 kts | 26° |
| 2026-05-06 20:54 | 49.41330 | -122.91399 | 10847 ft | 257 kts | 26° |
| 2026-05-06 20:54 | 49.42874 | -122.90011 | 11467 ft | 260 kts | 25° |
| 2026-05-06 20:54 | 49.44424 | -122.88617 | 12076 ft | 262 kts | 25° |
| 2026-05-06 20:54 | 49.46008 | -122.87190 | 12644 ft | 266 kts | 24° |
| 2026-05-06 20:55 | 49.47617 | -122.85741 | 13204 ft | 268 kts | 24° |
| 2026-05-06 20:55 | 49.49207 | -122.84306 | 13746 ft | 270 kts | 23° |
| 2026-05-06 20:55 | 49.50832 | -122.82839 | 14272 ft | 272 kts | 23° |
| 2026-05-06 20:55 | 49.52457 | -122.81371 | 14768 ft | 274 kts | 23° |
| 2026-05-06 20:56 | 49.54112 | -122.79871 | 15235 ft | 277 kts | 24° |
| 2026-05-06 20:56 | 49.55763 | -122.78371 | 15715 ft | 278 kts | 23° |
| 2026-05-06 20:56 | 49.57413 | -122.76871 | 16172 ft | 279 kts | 23° |
| 2026-05-06 20:56 | 49.59101 | -122.75339 | 16582 ft | 282 kts | 23° |
| 2026-05-06 20:57 | 49.60779 | -122.73816 | 16986 ft | 284 kts | 23° |
| 2026-05-06 20:57 | 49.62490 | -122.72260 | 17408 ft | 284 kts | 22° |
| 2026-05-06 20:57 | 49.64187 | -122.70718 | 17758 ft | 287 kts | 22° |
| 2026-05-06 20:57 | 49.65922 | -122.69137 | 18190 ft | 287 kts | 22° |
| 2026-05-06 20:58 | 49.67644 | -122.67570 | 18516 ft | 290 kts | 22° |
| 2026-05-06 20:58 | 49.69367 | -122.65999 | 18893 ft | 290 kts | 22° |
| 2026-05-06 20:58 | 49.71118 | -122.64407 | 19040 ft | 296 kts | 22° |
| 2026-05-06 20:58 | 49.72917 | -122.62772 | 19078 ft | 304 kts | 22° |
| 2026-05-06 20:59 | 49.74758 | -122.61095 | 19090 ft | 311 kts | 22° |
| 2026-05-06 20:59 | 49.76630 | -122.59386 | 19091 ft | 317 kts | 22° |
| 2026-05-06 20:59 | 49.78538 | -122.57642 | 19085 ft | 322 kts | 23° |
| 2026-05-06 20:59 | 49.80477 | -122.55865 | 19082 ft | 324 kts | 23° |
| 2026-05-06 21:00 | 49.82420 | -122.54081 | 19074 ft | 326 kts | 23° |
| 2026-05-06 21:00 | 49.84367 | -122.52292 | 19064 ft | 328 kts | 23° |
| 2026-05-06 21:00 | 49.86332 | -122.50486 | 19065 ft | 329 kts | 23° |
| 2026-05-06 21:00 | 49.88292 | -122.48682 | 19065 ft | 330 kts | 23° |
| 2026-05-06 21:01 | 49.90293 | -122.46995 | 19042 ft | 324 kts | 14° |
| 2026-05-06 21:01 | 49.92437 | -122.46307 | 19080 ft | 312 kts | 358° |
| 2026-05-06 21:01 | 49.94616 | -122.46032 | 19063 ft | 311 kts | 356° |
| 2026-05-06 21:01 | 49.96777 | -122.45785 | 19064 ft | 312 kts | 357° |
| 2026-05-06 21:02 | 49.98940 | -122.45532 | 19064 ft | 312 kts | 357° |
| 2026-05-06 21:02 | 50.01080 | -122.45279 | 19060 ft | 312 kts | 357° |
| 2026-05-06 21:02 | 50.03247 | -122.45020 | 19058 ft | 312 kts | 357° |
| 2026-05-06 21:02 | 50.05421 | -122.44759 | 19061 ft | 312 kts | 356° |
| 2026-05-06 21:03 | 50.07571 | -122.44501 | 19058 ft | 312 kts | 357° |
| 2026-05-06 21:03 | 50.09754 | -122.44237 | 19064 ft | 312 kts | 357° |
| 2026-05-06 21:03 | 50.11919 | -122.43974 | 19062 ft | 313 kts | 357° |
| 2026-05-06 21:03 | 50.14083 | -122.43711 | 19066 ft | 313 kts | 357° |
| 2026-05-06 21:04 | 50.16255 | -122.43446 | 19055 ft | 313 kts | 357° |
| 2026-05-06 21:04 | 50.18406 | -122.43185 | 19049 ft | 313 kts | 358° |
| 2026-05-06 21:04 | 50.20586 | -122.42918 | 19054 ft | 312 kts | 358° |
| 2026-05-06 21:04 | 50.22761 | -122.42651 | 19054 ft | 312 kts | 357° |
| 2026-05-06 21:05 | 50.24899 | -122.42390 | 19043 ft | 312 kts | 358° |
| 2026-05-06 21:05 | 50.27059 | -122.42124 | 19049 ft | 312 kts | 357° |
| 2026-05-06 21:05 | 50.29237 | -122.41858 | 19055 ft | 312 kts | 358° |
| 2026-05-06 21:05 | 50.31384 | -122.41594 | 19055 ft | 312 kts | 358° |
| 2026-05-06 21:06 | 50.33558 | -122.41327 | 19053 ft | 312 kts | 358° |
| 2026-05-06 21:06 | 50.35717 | -122.41061 | 19062 ft | 312 kts | 358° |
| 2026-05-06 21:06 | 50.37883 | -122.40794 | 19053 ft | 312 kts | 358° |
| 2026-05-06 21:06 | 50.40034 | -122.40528 | 19053 ft | 311 kts | 358° |
| 2026-05-06 21:07 | 50.42214 | -122.40259 | 19040 ft | 311 kts | 358° |
| 2026-05-06 21:07 | 50.44347 | -122.39995 | 19028 ft | 311 kts | 358° |
| 2026-05-06 21:07 | 50.46494 | -122.39729 | 19035 ft | 310 kts | 358° |
| 2026-05-06 21:07 | 50.48640 | -122.39464 | 19030 ft | 310 kts | 358° |
| 2026-05-06 21:08 | 50.50794 | -122.39197 | 19030 ft | 309 kts | 358° |
| 2026-05-06 21:08 | 50.52916 | -122.38934 | 19026 ft | 309 kts | 358° |
| 2026-05-06 21:08 | 50.55053 | -122.38668 | 19027 ft | 308 kts | 358° |
| 2026-05-06 21:08 | 50.57175 | -122.38404 | 19023 ft | 308 kts | 358° |
| 2026-05-06 21:09 | 50.59323 | -122.38137 | 19023 ft | 308 kts | 358° |
| 2026-05-06 21:09 | 50.61462 | -122.37871 | 19030 ft | 307 kts | 358° |
| 2026-05-06 21:09 | 50.63582 | -122.37606 | 19036 ft | 306 kts | 358° |
| 2026-05-06 21:09 | 50.65691 | -122.37343 | 19035 ft | 306 kts | 358° |
| 2026-05-06 21:10 | 50.67791 | -122.37081 | 19023 ft | 305 kts | 358° |
| 2026-05-06 21:10 | 50.69908 | -122.36816 | 19008 ft | 305 kts | 358° |
| 2026-05-06 21:10 | 50.72020 | -122.36552 | 19023 ft | 304 kts | 358° |
| 2026-05-06 21:10 | 50.74122 | -122.36288 | 19022 ft | 304 kts | 359° |
| 2026-05-06 21:11 | 50.76235 | -122.36021 | 19017 ft | 304 kts | 358° |
| 2026-05-06 21:11 | 50.78350 | -122.35755 | 19020 ft | 303 kts | 359° |
| 2026-05-06 21:11 | 50.80441 | -122.35491 | 19019 ft | 303 kts | 359° |
| 2026-05-06 21:11 | 50.82554 | -122.35225 | 19024 ft | 303 kts | 359° |
| 2026-05-06 21:12 | 50.84650 | -122.34960 | 19009 ft | 303 kts | 360° |
| 2026-05-06 21:12 | 50.86733 | -122.34697 | 19013 ft | 303 kts | 359° |
| 2026-05-06 21:12 | 50.88839 | -122.34431 | 19008 ft | 302 kts | 359° |
| 2026-05-06 21:12 | 50.90926 | -122.34166 | 19014 ft | 302 kts | 359° |
| 2026-05-06 21:13 | 50.92995 | -122.33903 | 19008 ft | 301 kts | 360° |
| 2026-05-06 21:13 | 50.95086 | -122.33638 | 19012 ft | 300 kts | 359° |
| 2026-05-06 21:13 | 50.97180 | -122.33373 | 19018 ft | 300 kts | 360° |
| 2026-05-06 21:13 | 50.99246 | -122.33109 | 19016 ft | 300 kts | 359° |
| 2026-05-06 21:14 | 51.01328 | -122.32845 | 19014 ft | 301 kts | 359° |
| 2026-05-06 21:14 | 51.03405 | -122.32581 | 19011 ft | 301 kts | 359° |
| 2026-05-06 21:14 | 51.05509 | -122.32314 | 19009 ft | 302 kts | 0° |
| 2026-05-06 21:14 | 51.07589 | -122.32049 | 19007 ft | 302 kts | 360° |
| 2026-05-06 21:15 | 51.09701 | -122.31780 | 19003 ft | 303 kts | 0° |
| 2026-05-06 21:15 | 51.11795 | -122.31512 | 19008 ft | 303 kts | 0° |
| 2026-05-06 21:15 | 51.13892 | -122.31243 | 19011 ft | 303 kts | 360° |
| 2026-05-06 21:15 | 51.15989 | -122.30975 | 18995 ft | 303 kts | 0° |
| 2026-05-06 21:16 | 51.18097 | -122.30706 | 18973 ft | 304 kts | 0° |
| 2026-05-06 21:16 | 51.20199 | -122.30436 | 18975 ft | 304 kts | 0° |
| 2026-05-06 21:16 | 51.22316 | -122.30164 | 18970 ft | 304 kts | 360° |
| 2026-05-06 21:16 | 51.24430 | -122.29893 | 18959 ft | 304 kts | 360° |
| 2026-05-06 21:17 | 51.26514 | -122.29624 | 18966 ft | 304 kts | 0° |
| 2026-05-06 21:17 | 51.28616 | -122.29353 | 18976 ft | 304 kts | 0° |
| 2026-05-06 21:17 | 51.30745 | -122.29079 | 18961 ft | 305 kts | 360° |
| 2026-05-06 21:17 | 51.32854 | -122.28807 | 18959 ft | 305 kts | 360° |
| 2026-05-06 21:18 | 51.34960 | -122.28535 | 18954 ft | 305 kts | 0° |
| 2026-05-06 21:18 | 51.37089 | -122.28260 | 18947 ft | 306 kts | 360° |
| 2026-05-06 21:18 | 51.39188 | -122.27988 | 18942 ft | 305 kts | 0° |
| 2026-05-06 21:18 | 51.41311 | -122.27715 | 18941 ft | 305 kts | 0° |
| 2026-05-06 21:19 | 51.43409 | -122.27442 | 18921 ft | 306 kts | 0° |
| 2026-05-06 21:19 | 51.45538 | -122.27166 | 18927 ft | 306 kts | 360° |
| 2026-05-06 21:19 | 51.47657 | -122.26891 | 18914 ft | 307 kts | 0° |
| 2026-05-06 21:19 | 51.49773 | -122.26615 | 18931 ft | 307 kts | 360° |
| 2026-05-06 21:20 | 51.51918 | -122.26336 | 18932 ft | 308 kts | 360° |
| 2026-05-06 21:20 | 51.54046 | -122.26059 | 18925 ft | 309 kts | 0° |
| 2026-05-06 21:20 | 51.56176 | -122.25781 | 18915 ft | 310 kts | 0° |
| 2026-05-06 21:20 | 51.58340 | -122.25499 | 18925 ft | 310 kts | 0° |
| 2026-05-06 21:21 | 51.60486 | -122.25219 | 18939 ft | 311 kts | 0° |
| 2026-05-06 21:21 | 51.62628 | -122.24939 | 18912 ft | 312 kts | 0° |
| 2026-05-06 21:21 | 51.64803 | -122.24654 | 18913 ft | 312 kts | 0° |
| 2026-05-06 21:21 | 51.66957 | -122.24371 | 18933 ft | 312 kts | 0° |
| 2026-05-06 21:22 | 51.69104 | -122.24090 | 18934 ft | 311 kts | 0° |
| 2026-05-06 21:22 | 51.71257 | -122.23807 | 18935 ft | 312 kts | 0° |
| 2026-05-06 21:22 | 51.73406 | -122.23525 | 18944 ft | 312 kts | 0° |
| 2026-05-06 21:22 | 51.75597 | -122.23237 | 18952 ft | 312 kts | 0° |
| 2026-05-06 21:23 | 51.77737 | -122.22955 | 18941 ft | 313 kts | 0° |
| 2026-05-06 21:23 | 51.79901 | -122.22671 | 18948 ft | 314 kts | 0° |
| 2026-05-06 21:23 | 51.82089 | -122.22382 | 18922 ft | 315 kts | 0° |
| 2026-05-06 21:23 | 51.84267 | -122.22095 | 18914 ft | 315 kts | 0° |
| 2026-05-06 21:24 | 51.86447 | -122.21807 | 18924 ft | 315 kts | 0° |
| 2026-05-06 21:24 | 51.88618 | -122.21520 | 18927 ft | 315 kts | 0° |
| 2026-05-06 21:24 | 51.90815 | -122.21230 | 18918 ft | 316 kts | 0° |
| 2026-05-06 21:24 | 51.92986 | -122.20942 | 18910 ft | 315 kts | 0° |
| 2026-05-06 21:25 | 51.95175 | -122.20651 | 18911 ft | 314 kts | 0° |
| 2026-05-06 21:25 | 51.97354 | -122.20362 | 18928 ft | 313 kts | 0° |
| 2026-05-06 21:25 | 51.99517 | -122.20075 | 18915 ft | 313 kts | 0° |
| 2026-05-06 21:25 | 52.01676 | -122.19788 | 18911 ft | 313 kts | 0° |
| 2026-05-06 21:26 | 52.03857 | -122.19498 | 18913 ft | 313 kts | 0° |
| 2026-05-06 21:26 | 52.06026 | -122.19209 | 18912 ft | 313 kts | 0° |
| 2026-05-06 21:26 | 52.08175 | -122.18922 | 18909 ft | 313 kts | 0° |
| 2026-05-06 21:26 | 52.10348 | -122.18632 | 18922 ft | 313 kts | 0° |
| 2026-05-06 21:27 | 52.12522 | -122.18343 | 18920 ft | 313 kts | 0° |
| 2026-05-06 21:27 | 52.14700 | -122.18051 | 18919 ft | 314 kts | 0° |
| 2026-05-06 21:27 | 52.16868 | -122.17761 | 18921 ft | 314 kts | 0° |
| 2026-05-06 21:27 | 52.19041 | -122.17470 | 18923 ft | 314 kts | 0° |
| 2026-05-06 21:28 | 52.21214 | -122.17178 | 18914 ft | 315 kts | 0° |
| 2026-05-06 21:28 | 52.23390 | -122.16900 | 18918 ft | 314 kts | 359° |
| 2026-05-06 21:28 | 52.25575 | -122.16878 | 18922 ft | 312 kts | 354° |
| 2026-05-06 21:28 | 52.27720 | -122.16987 | 18925 ft | 313 kts | 354° |
| 2026-05-06 21:29 | 52.29906 | -122.17105 | 18915 ft | 313 kts | 354° |
| 2026-05-06 21:29 | 52.32087 | -122.17220 | 18917 ft | 313 kts | 354° |
| 2026-05-06 21:29 | 52.34254 | -122.17330 | 18920 ft | 314 kts | 354° |
| 2026-05-06 21:29 | 52.36425 | -122.17441 | 18911 ft | 314 kts | 354° |
| 2026-05-06 21:30 | 52.38620 | -122.17550 | 18905 ft | 314 kts | 354° |
| 2026-05-06 21:30 | 52.40801 | -122.17658 | 18907 ft | 314 kts | 354° |
| 2026-05-06 21:30 | 52.42973 | -122.17765 | 18920 ft | 314 kts | 354° |
| 2026-05-06 21:30 | 52.45149 | -122.17872 | 18912 ft | 315 kts | 354° |
| 2026-05-06 21:31 | 52.47341 | -122.17979 | 18908 ft | 315 kts | 354° |
| 2026-05-06 21:31 | 52.49510 | -122.18085 | 18913 ft | 315 kts | 354° |
| 2026-05-06 21:31 | 52.51707 | -122.18192 | 18913 ft | 314 kts | 354° |
| 2026-05-06 21:31 | 52.53899 | -122.18299 | 18911 ft | 314 kts | 354° |
| 2026-05-06 21:32 | 52.56054 | -122.18404 | 18914 ft | 314 kts | 354° |
| 2026-05-06 21:32 | 52.60411 | -122.18617 | 18903 ft | 313 kts | 354° |
| 2026-05-06 21:32 | 52.62585 | -122.18722 | 18907 ft | 312 kts | 354° |
| 2026-05-06 21:33 | 52.64753 | -122.18828 | 18909 ft | 312 kts | 354° |
| 2026-05-06 21:33 | 52.66934 | -122.18935 | 18899 ft | 312 kts | 354° |
| 2026-05-06 21:33 | 52.69088 | -122.19041 | 18899 ft | 311 kts | 354° |
| 2026-05-06 21:33 | 52.71230 | -122.19146 | 18905 ft | 311 kts | 354° |
| 2026-05-06 21:34 | 52.73408 | -122.19253 | 18905 ft | 311 kts | 354° |
| 2026-05-06 21:34 | 52.75537 | -122.19357 | 18905 ft | 310 kts | 354° |
| 2026-05-06 21:34 | 52.77695 | -122.19463 | 18913 ft | 310 kts | 354° |
| 2026-05-06 21:34 | 52.79853 | -122.19569 | 18918 ft | 310 kts | 354° |
| 2026-05-06 21:35 | 52.82010 | -122.19676 | 18921 ft | 310 kts | 354° |
| 2026-05-06 21:35 | 52.84164 | -122.19782 | 18924 ft | 310 kts | 354° |
| 2026-05-06 21:35 | 52.86291 | -122.19888 | 18925 ft | 310 kts | 354° |
| 2026-05-06 21:35 | 52.88448 | -122.19994 | 18929 ft | 309 kts | 354° |
| 2026-05-06 21:36 | 52.90609 | -122.20100 | 18933 ft | 309 kts | 354° |
| 2026-05-06 21:36 | 52.92738 | -122.20206 | 18933 ft | 309 kts | 354° |
| 2026-05-06 21:36 | 52.94888 | -122.20312 | 18937 ft | 309 kts | 354° |
| 2026-05-06 21:36 | 52.97023 | -122.20418 | 18939 ft | 309 kts | 354° |
| 2026-05-06 21:37 | 52.99171 | -122.20525 | 18940 ft | 309 kts | 354° |
| 2026-05-06 21:37 | 53.01319 | -122.20631 | 18941 ft | 308 kts | 354° |
| 2026-05-06 21:37 | 53.03446 | -122.20737 | 18937 ft | 308 kts | 354° |
| 2026-05-06 21:37 | 53.05575 | -122.20843 | 18936 ft | 308 kts | 354° |
| 2026-05-06 21:38 | 53.07712 | -122.20950 | 18939 ft | 307 kts | 354° |
| 2026-05-06 21:38 | 53.09845 | -122.21056 | 18934 ft | 307 kts | 354° |
| 2026-05-06 21:38 | 53.11985 | -122.21162 | 18932 ft | 307 kts | 354° |
| 2026-05-06 21:38 | 53.14095 | -122.21268 | 18931 ft | 307 kts | 354° |
| 2026-05-06 21:39 | 53.16250 | -122.21376 | 18928 ft | 307 kts | 354° |
| 2026-05-06 21:39 | 53.18361 | -122.21481 | 18924 ft | 307 kts | 354° |
| 2026-05-06 21:39 | 53.20494 | -122.21588 | 18921 ft | 307 kts | 354° |
| 2026-05-06 21:39 | 53.22613 | -122.21695 | 18918 ft | 307 kts | 354° |
| 2026-05-06 21:40 | 53.24766 | -122.21803 | 18877 ft | 308 kts | 354° |
| 2026-05-06 21:40 | 53.26907 | -122.21913 | 18634 ft | 315 kts | 354° |
| 2026-05-06 21:40 | 53.29135 | -122.22028 | 18311 ft | 323 kts | 355° |
| 2026-05-06 21:40 | 53.31388 | -122.22144 | 17958 ft | 329 kts | 355° |
| 2026-05-06 21:41 | 53.33684 | -122.22259 | 17592 ft | 329 kts | 355° |
| 2026-05-06 21:41 | 53.35928 | -122.22372 | 17248 ft | 316 kts | 355° |
| 2026-05-06 21:41 | 53.38054 | -122.22479 | 16918 ft | 304 kts | 355° |
| 2026-05-06 21:41 | 53.40129 | -122.22586 | 16585 ft | 295 kts | 354° |
| 2026-05-06 21:42 | 53.42162 | -122.22691 | 16264 ft | 286 kts | 354° |
| 2026-05-06 21:42 | 53.44118 | -122.22791 | 15955 ft | 280 kts | 354° |
| 2026-05-06 21:42 | 53.46051 | -122.22890 | 15649 ft | 279 kts | 354° |
| 2026-05-06 21:42 | 53.47995 | -122.22990 | 15340 ft | 280 kts | 354° |
| 2026-05-06 21:43 | 53.49943 | -122.23091 | 15026 ft | 281 kts | 354° |
| 2026-05-06 21:43 | 53.51876 | -122.23191 | 14707 ft | 281 kts | 354° |
| 2026-05-06 21:43 | 53.53842 | -122.23292 | 14386 ft | 282 kts | 354° |
| 2026-05-06 21:43 | 53.55791 | -122.23392 | 14067 ft | 281 kts | 354° |
| 2026-05-06 21:44 | 53.57726 | -122.23491 | 13753 ft | 280 kts | 354° |
| 2026-05-06 21:44 | 53.59681 | -122.23591 | 13442 ft | 278 kts | 354° |
| 2026-05-06 21:44 | 53.61587 | -122.23688 | 13129 ft | 276 kts | 354° |
| 2026-05-06 21:44 | 53.63508 | -122.23786 | 12816 ft | 275 kts | 354° |
| 2026-05-06 21:45 | 53.65391 | -122.23882 | 12504 ft | 273 kts | 354° |
| 2026-05-06 21:45 | 53.67284 | -122.23979 | 12195 ft | 271 kts | 354° |
| 2026-05-06 21:45 | 53.69159 | -122.24075 | 11891 ft | 270 kts | 354° |
| 2026-05-06 21:45 | 53.71034 | -122.24171 | 11593 ft | 268 kts | 354° |
| 2026-05-06 21:46 | 53.72899 | -122.24268 | 11287 ft | 267 kts | 354° |
| 2026-05-06 21:46 | 53.74721 | -122.24361 | 10996 ft | 266 kts | 354° |
| 2026-05-06 21:46 | 53.76576 | -122.24458 | 10699 ft | 264 kts | 355° |
| 2026-05-06 21:46 | 53.78379 | -122.24551 | 10408 ft | 260 kts | 355° |
| 2026-05-06 21:47 | 53.80175 | -122.24643 | 10120 ft | 258 kts | 355° |
| 2026-05-06 21:47 | 53.81972 | -122.24736 | 9831 ft | 255 kts | 355° |
| 2026-05-06 21:47 | 53.83722 | -122.24827 | 9548 ft | 253 kts | 355° |
| 2026-05-06 21:47 | 53.85481 | -122.24918 | 9264 ft | 251 kts | 355° |
| 2026-05-06 21:48 | 53.87213 | -122.25008 | 8986 ft | 250 kts | 355° |
| 2026-05-06 21:48 | 53.88948 | -122.25098 | 8708 ft | 248 kts | 355° |
| 2026-05-06 21:48 | 53.90655 | -122.25187 | 8433 ft | 247 kts | 355° |
| 2026-05-06 21:48 | 53.92374 | -122.25276 | 8154 ft | 245 kts | 355° |
| 2026-05-06 21:49 | 53.94040 | -122.25688 | 7842 ft | 237 kts | 334° |
| 2026-05-06 21:49 | 53.95381 | -122.27137 | 7601 ft | 228 kts | 320° |
| 2026-05-06 21:49 | 53.96594 | -122.28800 | 7354 ft | 222 kts | 318° |
| 2026-05-06 21:49 | 53.97778 | -122.30440 | 7112 ft | 215 kts | 318° |
| 2026-05-06 21:50 | 53.98907 | -122.32034 | 6830 ft | 211 kts | 314° |
| 2026-05-06 21:50 | 53.99575 | -122.34145 | 6424 ft | 204 kts | 275° |
| 2026-05-06 21:50 | 53.99213 | -122.36391 | 6194 ft | 198 kts | 242° |
| 2026-05-06 21:50 | 53.98412 | -122.38291 | 5943 ft | 197 kts | 236° |
| 2026-05-06 21:51 | 53.97591 | -122.40092 | 5701 ft | 194 kts | 236° |
| 2026-05-06 21:51 | 53.96763 | -122.41888 | 5444 ft | 189 kts | 236° |
| 2026-05-06 21:51 | 53.95966 | -122.43602 | 5208 ft | 184 kts | 236° |
| 2026-05-06 21:51 | 53.95176 | -122.45293 | 4964 ft | 181 kts | 237° |
| 2026-05-06 21:52 | 53.94391 | -122.46971 | 4761 ft | 185 kts | 236° |
| 2026-05-06 21:52 | 53.93589 | -122.48679 | 4516 ft | 190 kts | 237° |
| 2026-05-06 21:52 | 53.92865 | -122.50575 | 4265 ft | 189 kts | 247° |
| 2026-05-06 21:52 | 53.92327 | -122.52554 | 3999 ft | 185 kts | 251° |
| 2026-05-06 21:53 | 53.91834 | -122.54458 | 3757 ft | 168 kts | 251° |
| 2026-05-06 21:53 | 53.91327 | -122.56134 | 3500 ft | 152 kts | 249° |
| 2026-05-06 21:53 | 53.90825 | -122.57616 | 3237 ft | 140 kts | 245° |
| 2026-05-06 21:53 | 53.90339 | -122.59013 | 3021 ft | 129 kts | 245° |
| 2026-05-06 21:54 | 53.89978 | -122.60332 | 2722 ft | 125 kts | 260° |
| 2026-05-06 21:54 | 53.89715 | -122.61675 | 2665 ft | 117 kts | 256° |
| 2026-05-06 21:54 | 53.89429 | -122.63089 | 2653 ft | 131 kts | 254° |
| 2026-05-06 21:54 | 53.89141 | -122.64561 | 2514 ft | 132 kts | 257° |
| 2026-05-06 21:55 | 53.88888 | -122.66032 | 2369 ft | 129 kts | 260° |
| 2026-05-06 21:55 | 53.88761 | -122.67415 | 2249 ft | 105 kts | 260° |
| 2026-05-06 21:55 | 53.88670 | -122.68342 | 2269 ft | 59 kts | 264° |
| 2026-05-06 21:55 | 53.88614 | -122.68900 | 2285 ft | 37 kts | 261° |
| 2026-05-06 21:56 | 53.88593 | -122.69196 | 2292 ft | 10 kts | 264° |
| 2026-05-06 21:56 | 53.88566 | -122.69236 | 2293 ft | 6 kts | 115° |
| 2026-05-06 21:56 | 53.88591 | -122.69142 | 2291 ft | 10 kts | 72° |
| 2026-05-06 21:56 | 53.88608 | -122.69007 | 2287 ft | 14 kts | 78° |
| 2026-05-06 21:57 | 53.88627 | -122.68827 | 2284 ft | 17 kts | 81° |
| 2026-05-06 21:57 | 53.88650 | -122.68594 | 2276 ft | 24 kts | 79° |
| 2026-05-06 21:57 | 53.88682 | -122.68266 | 2267 ft | 30 kts | 81° |
| 2026-05-06 21:57 | 53.88716 | -122.67920 | 2260 ft | 23 kts | 78° |
| 2026-05-06 21:58 | 53.88738 | -122.67691 | 2254 ft | 13 kts | 98° |
| 2026-05-06 21:58 | 53.88695 | -122.67677 | 2254 ft | 9 kts | 226° |
| 2026-05-06 21:58 | 53.88621 | -122.67736 | 2256 ft | 14 kts | 164° |
| 2026-05-06 21:58 | 53.88551 | -122.67619 | 2253 ft | 13 kts | 123° |
| 2026-05-06 21:59 | 53.88506 | -122.67529 | 2251 ft | 8 kts | 139° |
| 2026-05-06 21:59 | 53.88483 | -122.67475 | 2249 ft | 3 kts | 144° |
| 2026-05-06 21:59 | 53.88477 | -122.67471 | 2249 ft | 0 kts | 159° |